sensor_id;sensor_type;location;lat;lon;timestamp;P1;durP1;ratioP1;P2;durP2;ratioP2
22715;SDS011;11525;51.152;4.456;2023-04-23T00:01:16;46.97;;;33.40;;
22715;SDS011;11525;51.152;4.456;2023-04-23T00:03:43;41.45;;;32.30;;
22715;SDS011;11525;51.152;4.456;2023-04-23T00:06:10;40.28;;;27.45;;
22715;SDS011;11525;51.152;4.456;2023-04-23T00:08:37;42.25;;;30.95;;
22715;SDS011;11525;51.152;4.456;2023-04-23T00:11:07;40.75;;;31.95;;
22715;SDS011;11525;51.152;4.456;2023-04-23T00:13:34;43.22;;;32.13;;
22715;SDS011;11525;51.152;4.456;2023-04-23T00:16:00;37.50;;;29.77;;
22715;SDS011;11525;51.152;4.456;2023-04-23T00:18:26;37.83;;;29.70;;
22715;SDS011;11525;51.152;4.456;2023-04-23T00:20:53;43.17;;;30.42;;
22715;SDS011;11525;51.152;4.456;2023-04-23T00:23:19;43.17;;;31.08;;
22715;SDS011;11525;51.152;4.456;2023-04-23T00:25:45;40.50;;;30.17;;
22715;SDS011;11525;51.152;4.456;2023-04-23T00:28:11;40.33;;;30.58;;
22715;SDS011;11525;51.152;4.456;2023-04-23T00:30:37;38.97;;;29.50;;
22715;SDS011;11525;51.152;4.456;2023-04-23T00:33:03;43.47;;;30.80;;
22715;SDS011;11525;51.152;4.456;2023-04-23T00:35:29;37.83;;;29.33;;
22715;SDS011;11525;51.152;4.456;2023-04-23T00:37:54;37.75;;;29.20;;
22715;SDS011;11525;51.152;4.456;2023-04-23T00:40:20;38.28;;;29.27;;
22715;SDS011;11525;51.152;4.456;2023-04-23T00:42:47;36.53;;;28.50;;
22715;SDS011;11525;51.152;4.456;2023-04-23T00:45:16;42.08;;;28.90;;
22715;SDS011;11525;51.152;4.456;2023-04-23T00:47:42;41.42;;;31.33;;
22715;SDS011;11525;51.152;4.456;2023-04-23T00:50:09;39.22;;;30.02;;
22715;SDS011;11525;51.152;4.456;2023-04-23T00:52:35;37.40;;;24.38;;
22715;SDS011;11525;51.152;4.456;2023-04-23T00:55:03;37.65;;;24.23;;
22715;SDS011;11525;51.152;4.456;2023-04-23T00:57:29;38.10;;;26.13;;
22715;SDS011;11525;51.152;4.456;2023-04-23T00:59:55;35.20;;;23.63;;
22715;SDS011;11525;51.152;4.456;2023-04-23T01:02:22;36.60;;;24.48;;
22715;SDS011;11525;51.152;4.456;2023-04-23T01:04:48;36.53;;;23.17;;
22715;SDS011;11525;51.152;4.456;2023-04-23T01:07:19;31.02;;;22.33;;
22715;SDS011;11525;51.152;4.456;2023-04-23T01:09:47;34.83;;;23.80;;
22715;SDS011;11525;51.152;4.456;2023-04-23T01:12:14;32.83;;;23.77;;
22715;SDS011;11525;51.152;4.456;2023-04-23T01:14:41;41.30;;;23.70;;
22715;SDS011;11525;51.152;4.456;2023-04-23T01:17:08;35.35;;;24.05;;
22715;SDS011;11525;51.152;4.456;2023-04-23T01:19:35;33.80;;;23.67;;
22715;SDS011;11525;51.152;4.456;2023-04-23T01:22:01;38.28;;;25.48;;
22715;SDS011;11525;51.152;4.456;2023-04-23T01:24:28;34.25;;;23.90;;
22715;SDS011;11525;51.152;4.456;2023-04-23T01:26:55;35.83;;;25.80;;
22715;SDS011;11525;51.152;4.456;2023-04-23T01:29:25;40.22;;;24.90;;
22715;SDS011;11525;51.152;4.456;2023-04-23T01:31:52;34.38;;;24.23;;
22715;SDS011;11525;51.152;4.456;2023-04-23T01:34:18;37.75;;;24.98;;
22715;SDS011;11525;51.152;4.456;2023-04-23T01:36:45;35.95;;;24.05;;
22715;SDS011;11525;51.152;4.456;2023-04-23T01:39:13;35.45;;;24.40;;
22715;SDS011;11525;51.152;4.456;2023-04-23T01:41:38;37.75;;;25.45;;
22715;SDS011;11525;51.152;4.456;2023-04-23T01:44:05;43.25;;;30.92;;
22715;SDS011;11525;51.152;4.456;2023-04-23T01:46:31;41.45;;;30.45;;
22715;SDS011;11525;51.152;4.456;2023-04-23T01:48:57;38.13;;;29.23;;
22715;SDS011;11525;51.152;4.456;2023-04-23T01:51:23;38.85;;;28.58;;
22715;SDS011;11525;51.152;4.456;2023-04-23T01:53:50;38.22;;;29.20;;
22715;SDS011;11525;51.152;4.456;2023-04-23T01:56:16;38.45;;;28.88;;
22715;SDS011;11525;51.152;4.456;2023-04-23T01:58:44;37.33;;;29.10;;
22715;SDS011;11525;51.152;4.456;2023-04-23T02:01:09;37.25;;;28.15;;
22715;SDS011;11525;51.152;4.456;2023-04-23T02:03:35;39.70;;;27.52;;
22715;SDS011;11525;51.152;4.456;2023-04-23T02:06:01;34.83;;;26.15;;
22715;SDS011;11525;51.152;4.456;2023-04-23T02:08:29;31.80;;;24.75;;
22715;SDS011;11525;51.152;4.456;2023-04-23T02:10:55;35.38;;;26.15;;
22715;SDS011;11525;51.152;4.456;2023-04-23T02:13:21;32.72;;;22.40;;
22715;SDS011;11525;51.152;4.456;2023-04-23T02:15:47;30.70;;;21.02;;
22715;SDS011;11525;51.152;4.456;2023-04-23T02:18:13;29.85;;;21.50;;
22715;SDS011;11525;51.152;4.456;2023-04-23T02:20:38;28.90;;;21.20;;
22715;SDS011;11525;51.152;4.456;2023-04-23T02:23:08;29.73;;;21.83;;
22715;SDS011;11525;51.152;4.456;2023-04-23T02:25:34;30.13;;;21.50;;
22715;SDS011;11525;51.152;4.456;2023-04-23T02:28:02;27.77;;;20.30;;
22715;SDS011;11525;51.152;4.456;2023-04-23T02:30:31;27.33;;;19.73;;
22715;SDS011;11525;51.152;4.456;2023-04-23T02:32:57;33.17;;;19.33;;
22715;SDS011;11525;51.152;4.456;2023-04-23T02:35:23;28.85;;;20.90;;
22715;SDS011;11525;51.152;4.456;2023-04-23T02:37:49;28.52;;;20.13;;
22715;SDS011;11525;51.152;4.456;2023-04-23T02:40:15;30.45;;;21.33;;
22715;SDS011;11525;51.152;4.456;2023-04-23T02:42:41;28.75;;;20.38;;
22715;SDS011;11525;51.152;4.456;2023-04-23T02:45:06;31.90;;;20.52;;
22715;SDS011;11525;51.152;4.456;2023-04-23T02:47:32;27.40;;;19.35;;
22715;SDS011;11525;51.152;4.456;2023-04-23T02:49:58;27.77;;;21.15;;
22715;SDS011;11525;51.152;4.456;2023-04-23T02:52:30;27.58;;;20.00;;
22715;SDS011;11525;51.152;4.456;2023-04-23T02:54:56;28.77;;;21.17;;
22715;SDS011;11525;51.152;4.456;2023-04-23T02:57:22;24.50;;;18.50;;
22715;SDS011;11525;51.152;4.456;2023-04-23T02:59:48;26.85;;;19.77;;
22715;SDS011;11525;51.152;4.456;2023-04-23T03:02:14;28.35;;;19.88;;
22715;SDS011;11525;51.152;4.456;2023-04-23T03:04:40;28.75;;;20.52;;
22715;SDS011;11525;51.152;4.456;2023-04-23T03:07:06;26.83;;;19.40;;
22715;SDS011;11525;51.152;4.456;2023-04-23T03:09:32;28.65;;;20.15;;
22715;SDS011;11525;51.152;4.456;2023-04-23T03:11:58;26.45;;;18.98;;
22715;SDS011;11525;51.152;4.456;2023-04-23T03:14:24;27.27;;;19.58;;
22715;SDS011;11525;51.152;4.456;2023-04-23T03:16:50;29.45;;;19.38;;
22715;SDS011;11525;51.152;4.456;2023-04-23T03:19:16;30.60;;;20.35;;
22715;SDS011;11525;51.152;4.456;2023-04-23T03:21:41;27.08;;;20.10;;
22715;SDS011;11525;51.152;4.456;2023-04-23T03:24:09;25.67;;;19.00;;
22715;SDS011;11525;51.152;4.456;2023-04-23T03:26:37;27.88;;;19.27;;
22715;SDS011;11525;51.152;4.456;2023-04-23T03:29:02;25.75;;;17.80;;
22715;SDS011;11525;51.152;4.456;2023-04-23T03:31:30;29.58;;;19.58;;
22715;SDS011;11525;51.152;4.456;2023-04-23T03:33:55;33.20;;;20.73;;
22715;SDS011;11525;51.152;4.456;2023-04-23T03:36:21;33.80;;;20.05;;
22715;SDS011;11525;51.152;4.456;2023-04-23T03:38:47;27.90;;;19.10;;
22715;SDS011;11525;51.152;4.456;2023-04-23T03:41:13;27.90;;;18.55;;
22715;SDS011;11525;51.152;4.456;2023-04-23T03:43:38;27.73;;;19.73;;
22715;SDS011;11525;51.152;4.456;2023-04-23T03:46:04;27.38;;;17.90;;
22715;SDS011;11525;51.152;4.456;2023-04-23T03:48:30;29.83;;;18.15;;
22715;SDS011;11525;51.152;4.456;2023-04-23T03:50:56;28.20;;;18.55;;
22715;SDS011;11525;51.152;4.456;2023-04-23T03:53:22;25.48;;;17.95;;
22715;SDS011;11525;51.152;4.456;2023-04-23T03:55:48;25.15;;;17.52;;
22715;SDS011;11525;51.152;4.456;2023-04-23T03:58:14;28.85;;;18.95;;
22715;SDS011;11525;51.152;4.456;2023-04-23T04:00:39;28.50;;;19.13;;
22715;SDS011;11525;51.152;4.456;2023-04-23T04:03:05;26.23;;;17.17;;
22715;SDS011;11525;51.152;4.456;2023-04-23T04:05:32;28.58;;;17.67;;
22715;SDS011;11525;51.152;4.456;2023-04-23T04:07:58;30.38;;;18.60;;
22715;SDS011;11525;51.152;4.456;2023-04-23T04:10:25;26.33;;;17.27;;
22715;SDS011;11525;51.152;4.456;2023-04-23T04:12:51;25.20;;;16.48;;
22715;SDS011;11525;51.152;4.456;2023-04-23T04:15:19;28.48;;;17.02;;
22715;SDS011;11525;51.152;4.456;2023-04-23T04:17:45;26.70;;;17.23;;
22715;SDS011;11525;51.152;4.456;2023-04-23T04:20:11;29.83;;;21.08;;
22715;SDS011;11525;51.152;4.456;2023-04-23T04:22:37;29.50;;;20.65;;
22715;SDS011;11525;51.152;4.456;2023-04-23T04:25:03;24.10;;;16.08;;
22715;SDS011;11525;51.152;4.456;2023-04-23T04:27:30;24.40;;;16.90;;
22715;SDS011;11525;51.152;4.456;2023-04-23T04:29:58;32.72;;;17.25;;
22715;SDS011;11525;51.152;4.456;2023-04-23T04:32:29;24.65;;;15.77;;
22715;SDS011;11525;51.152;4.456;2023-04-23T04:34:55;23.98;;;16.33;;
22715;SDS011;11525;51.152;4.456;2023-04-23T04:37:21;25.00;;;16.75;;
22715;SDS011;11525;51.152;4.456;2023-04-23T04:39:47;24.70;;;16.73;;
22715;SDS011;11525;51.152;4.456;2023-04-23T04:42:13;24.42;;;15.73;;
22715;SDS011;11525;51.152;4.456;2023-04-23T04:44:39;25.63;;;17.42;;
22715;SDS011;11525;51.152;4.456;2023-04-23T04:47:07;25.27;;;17.27;;
22715;SDS011;11525;51.152;4.456;2023-04-23T04:49:33;24.10;;;16.77;;
22715;SDS011;11525;51.152;4.456;2023-04-23T04:52:00;26.08;;;17.45;;
22715;SDS011;11525;51.152;4.456;2023-04-23T04:54:26;31.58;;;20.08;;
22715;SDS011;11525;51.152;4.456;2023-04-23T04:56:51;24.02;;;19.40;;
22715;SDS011;11525;51.152;4.456;2023-04-23T04:59:17;25.77;;;19.42;;
22715;SDS011;11525;51.152;4.456;2023-04-23T05:01:43;28.88;;;20.80;;
22715;SDS011;11525;51.152;4.456;2023-04-23T05:04:09;27.15;;;19.60;;
22715;SDS011;11525;51.152;4.456;2023-04-23T05:06:35;29.48;;;16.75;;
22715;SDS011;11525;51.152;4.456;2023-04-23T05:09:01;25.08;;;19.55;;
22715;SDS011;11525;51.152;4.456;2023-04-23T05:11:26;24.90;;;16.40;;
22715;SDS011;11525;51.152;4.456;2023-04-23T05:13:52;22.40;;;16.10;;
22715;SDS011;11525;51.152;4.456;2023-04-23T05:16:18;27.50;;;16.58;;
22715;SDS011;11525;51.152;4.456;2023-04-23T05:18:44;25.52;;;18.48;;
22715;SDS011;11525;51.152;4.456;2023-04-23T05:21:10;26.75;;;15.82;;
22715;SDS011;11525;51.152;4.456;2023-04-23T05:23:36;21.70;;;15.25;;
22715;SDS011;11525;51.152;4.456;2023-04-23T05:26:02;23.77;;;14.82;;
22715;SDS011;11525;51.152;4.456;2023-04-23T05:28:28;21.80;;;14.60;;
22715;SDS011;11525;51.152;4.456;2023-04-23T05:30:55;24.05;;;15.18;;
22715;SDS011;11525;51.152;4.456;2023-04-23T05:33:21;19.40;;;15.00;;
22715;SDS011;11525;51.152;4.456;2023-04-23T05:35:47;21.70;;;13.10;;
22715;SDS011;11525;51.152;4.456;2023-04-23T05:38:13;20.92;;;14.23;;
22715;SDS011;11525;51.152;4.456;2023-04-23T05:40:38;18.10;;;14.25;;
22715;SDS011;11525;51.152;4.456;2023-04-23T05:43:04;21.60;;;13.73;;
22715;SDS011;11525;51.152;4.456;2023-04-23T05:45:30;18.13;;;12.75;;
22715;SDS011;11525;51.152;4.456;2023-04-23T05:47:56;16.33;;;11.68;;
22715;SDS011;11525;51.152;4.456;2023-04-23T05:50:22;17.42;;;12.15;;
22715;SDS011;11525;51.152;4.456;2023-04-23T05:52:47;18.60;;;12.25;;
22715;SDS011;11525;51.152;4.456;2023-04-23T05:55:13;14.95;;;11.25;;
22715;SDS011;11525;51.152;4.456;2023-04-23T05:57:44;20.77;;;11.50;;
22715;SDS011;11525;51.152;4.456;2023-04-23T06:00:10;17.83;;;11.93;;
22715;SDS011;11525;51.152;4.456;2023-04-23T06:02:36;13.65;;;10.50;;
22715;SDS011;11525;51.152;4.456;2023-04-23T06:05:03;17.23;;;10.07;;
22715;SDS011;11525;51.152;4.456;2023-04-23T06:07:30;16.48;;;9.75;;
22715;SDS011;11525;51.152;4.456;2023-04-23T06:09:56;17.13;;;9.80;;
22715;SDS011;11525;51.152;4.456;2023-04-23T06:12:21;14.40;;;9.13;;
22715;SDS011;11525;51.152;4.456;2023-04-23T06:14:47;13.15;;;8.70;;
22715;SDS011;11525;51.152;4.456;2023-04-23T06:17:13;14.73;;;7.68;;
22715;SDS011;11525;51.152;4.456;2023-04-23T06:19:39;10.38;;;6.45;;
22715;SDS011;11525;51.152;4.456;2023-04-23T06:22:05;9.15;;;5.55;;
22715;SDS011;11525;51.152;4.456;2023-04-23T06:24:31;6.32;;;4.97;;
22715;SDS011;11525;51.152;4.456;2023-04-23T06:26:57;7.88;;;4.97;;
22715;SDS011;11525;51.152;4.456;2023-04-23T06:29:23;7.65;;;4.60;;
22715;SDS011;11525;51.152;4.456;2023-04-23T06:31:49;10.93;;;4.55;;
22715;SDS011;11525;51.152;4.456;2023-04-23T06:34:15;9.40;;;4.05;;
22715;SDS011;11525;51.152;4.456;2023-04-23T06:36:40;7.95;;;3.65;;
22715;SDS011;11525;51.152;4.456;2023-04-23T06:39:07;9.65;;;4.28;;
22715;SDS011;11525;51.152;4.456;2023-04-23T06:41:34;7.70;;;3.72;;
22715;SDS011;11525;51.152;4.456;2023-04-23T06:44:00;7.85;;;3.50;;
22715;SDS011;11525;51.152;4.456;2023-04-23T06:46:26;6.03;;;3.28;;
22715;SDS011;11525;51.152;4.456;2023-04-23T06:48:52;8.63;;;3.53;;
22715;SDS011;11525;51.152;4.456;2023-04-23T06:51:17;6.60;;;3.05;;
22715;SDS011;11525;51.152;4.456;2023-04-23T06:53:43;8.40;;;3.22;;
22715;SDS011;11525;51.152;4.456;2023-04-23T06:56:09;8.18;;;2.95;;
22715;SDS011;11525;51.152;4.456;2023-04-23T06:58:35;6.80;;;3.13;;
22715;SDS011;11525;51.152;4.456;2023-04-23T07:01:01;8.50;;;3.17;;
22715;SDS011;11525;51.152;4.456;2023-04-23T07:03:31;7.30;;;3.08;;
22715;SDS011;11525;51.152;4.456;2023-04-23T07:05:57;5.35;;;2.60;;
22715;SDS011;11525;51.152;4.456;2023-04-23T07:08:23;9.05;;;2.67;;
22715;SDS011;11525;51.152;4.456;2023-04-23T07:10:49;6.60;;;2.75;;
22715;SDS011;11525;51.152;4.456;2023-04-23T07:13:15;10.40;;;2.90;;
22715;SDS011;11525;51.152;4.456;2023-04-23T07:15:41;6.55;;;2.58;;
22715;SDS011;11525;51.152;4.456;2023-04-23T07:18:07;8.10;;;2.45;;
22715;SDS011;11525;51.152;4.456;2023-04-23T07:20:33;4.88;;;2.42;;
22715;SDS011;11525;51.152;4.456;2023-04-23T07:22:59;6.40;;;2.28;;
22715;SDS011;11525;51.152;4.456;2023-04-23T07:25:25;6.30;;;2.38;;
22715;SDS011;11525;51.152;4.456;2023-04-23T07:27:51;6.78;;;2.90;;
22715;SDS011;11525;51.152;4.456;2023-04-23T07:30:18;8.27;;;2.60;;
22715;SDS011;11525;51.152;4.456;2023-04-23T07:32:45;8.48;;;2.50;;
22715;SDS011;11525;51.152;4.456;2023-04-23T07:35:11;6.50;;;2.58;;
22715;SDS011;11525;51.152;4.456;2023-04-23T07:37:37;7.20;;;2.17;;
22715;SDS011;11525;51.152;4.456;2023-04-23T07:40:03;5.82;;;1.90;;
22715;SDS011;11525;51.152;4.456;2023-04-23T07:42:30;6.70;;;2.45;;
22715;SDS011;11525;51.152;4.456;2023-04-23T07:44:56;8.60;;;2.17;;
22715;SDS011;11525;51.152;4.456;2023-04-23T07:47:22;8.38;;;1.92;;
22715;SDS011;11525;51.152;4.456;2023-04-23T07:49:47;5.80;;;2.17;;
22715;SDS011;11525;51.152;4.456;2023-04-23T07:52:13;10.02;;;2.25;;
22715;SDS011;11525;51.152;4.456;2023-04-23T07:54:40;7.68;;;2.40;;
22715;SDS011;11525;51.152;4.456;2023-04-23T07:57:06;6.72;;;2.47;;
22715;SDS011;11525;51.152;4.456;2023-04-23T07:59:32;7.88;;;2.28;;
22715;SDS011;11525;51.152;4.456;2023-04-23T08:01:58;7.32;;;2.20;;
22715;SDS011;11525;51.152;4.456;2023-04-23T08:04:23;8.60;;;2.30;;
22715;SDS011;11525;51.152;4.456;2023-04-23T08:06:49;5.22;;;2.05;;
22715;SDS011;11525;51.152;4.456;2023-04-23T08:09:15;8.13;;;2.17;;
22715;SDS011;11525;51.152;4.456;2023-04-23T08:11:41;8.88;;;2.22;;
22715;SDS011;11525;51.152;4.456;2023-04-23T08:14:07;6.25;;;2.33;;
22715;SDS011;11525;51.152;4.456;2023-04-23T08:16:33;8.88;;;2.15;;
22715;SDS011;11525;51.152;4.456;2023-04-23T08:18:58;8.05;;;2.30;;
22715;SDS011;11525;51.152;4.456;2023-04-23T08:21:25;9.38;;;2.30;;
22715;SDS011;11525;51.152;4.456;2023-04-23T08:23:51;5.80;;;2.22;;
22715;SDS011;11525;51.152;4.456;2023-04-23T08:26:17;6.70;;;2.22;;
22715;SDS011;11525;51.152;4.456;2023-04-23T08:28:43;5.47;;;1.83;;
22715;SDS011;11525;51.152;4.456;2023-04-23T08:31:10;7.45;;;2.05;;
22715;SDS011;11525;51.152;4.456;2023-04-23T08:33:36;7.82;;;1.92;;
22715;SDS011;11525;51.152;4.456;2023-04-23T08:36:02;7.72;;;2.10;;
22715;SDS011;11525;51.152;4.456;2023-04-23T08:38:28;8.57;;;2.10;;
22715;SDS011;11525;51.152;4.456;2023-04-23T08:40:55;7.40;;;2.25;;
22715;SDS011;11525;51.152;4.456;2023-04-23T08:43:26;5.60;;;1.98;;
22715;SDS011;11525;51.152;4.456;2023-04-23T08:45:59;6.93;;;1.95;;
22715;SDS011;11525;51.152;4.456;2023-04-23T08:48:30;8.30;;;2.22;;
22715;SDS011;11525;51.152;4.456;2023-04-23T08:50:58;5.78;;;2.30;;
22715;SDS011;11525;51.152;4.456;2023-04-23T08:53:26;4.60;;;2.17;;
22715;SDS011;11525;51.152;4.456;2023-04-23T08:55:53;6.25;;;2.33;;
22715;SDS011;11525;51.152;4.456;2023-04-23T08:58:20;5.90;;;2.05;;
22715;SDS011;11525;51.152;4.456;2023-04-23T09:00:47;10.57;;;2.97;;
22715;SDS011;11525;51.152;4.456;2023-04-23T09:03:15;5.22;;;1.92;;
22715;SDS011;11525;51.152;4.456;2023-04-23T09:05:42;7.93;;;1.98;;
22715;SDS011;11525;51.152;4.456;2023-04-23T09:08:09;7.53;;;2.03;;
22715;SDS011;11525;51.152;4.456;2023-04-23T09:10:36;7.28;;;2.20;;
22715;SDS011;11525;51.152;4.456;2023-04-23T09:13:04;9.95;;;2.72;;
22715;SDS011;11525;51.152;4.456;2023-04-23T09:15:30;5.05;;;2.13;;
22715;SDS011;11525;51.152;4.456;2023-04-23T09:17:56;6.65;;;2.05;;
22715;SDS011;11525;51.152;4.456;2023-04-23T09:20:23;10.48;;;2.33;;
22715;SDS011;11525;51.152;4.456;2023-04-23T09:22:50;9.90;;;2.38;;
22715;SDS011;11525;51.152;4.456;2023-04-23T09:25:20;5.93;;;1.67;;
22715;SDS011;11525;51.152;4.456;2023-04-23T09:27:48;6.07;;;1.85;;
22715;SDS011;11525;51.152;4.456;2023-04-23T09:30:15;7.70;;;2.30;;
22715;SDS011;11525;51.152;4.456;2023-04-23T09:32:42;5.68;;;1.92;;
22715;SDS011;11525;51.152;4.456;2023-04-23T09:35:13;7.50;;;2.28;;
22715;SDS011;11525;51.152;4.456;2023-04-23T09:37:44;4.57;;;1.70;;
22715;SDS011;11525;51.152;4.456;2023-04-23T09:40:15;7.72;;;2.33;;
22715;SDS011;11525;51.152;4.456;2023-04-23T09:42:45;8.68;;;2.22;;
22715;SDS011;11525;51.152;4.456;2023-04-23T09:45:13;7.65;;;2.20;;
22715;SDS011;11525;51.152;4.456;2023-04-23T09:47:40;7.63;;;2.03;;
22715;SDS011;11525;51.152;4.456;2023-04-23T09:50:13;10.43;;;2.45;;
22715;SDS011;11525;51.152;4.456;2023-04-23T09:52:39;6.10;;;1.77;;
22715;SDS011;11525;51.152;4.456;2023-04-23T09:55:06;5.65;;;2.03;;
22715;SDS011;11525;51.152;4.456;2023-04-23T09:57:35;6.78;;;2.15;;
22715;SDS011;11525;51.152;4.456;2023-04-23T10:00:11;7.50;;;2.42;;
22715;SDS011;11525;51.152;4.456;2023-04-23T10:02:37;8.30;;;2.10;;
22715;SDS011;11525;51.152;4.456;2023-04-23T10:05:13;5.55;;;2.20;;
22715;SDS011;11525;51.152;4.456;2023-04-23T10:07:40;7.80;;;2.20;;
22715;SDS011;11525;51.152;4.456;2023-04-23T10:10:06;8.88;;;2.35;;
22715;SDS011;11525;51.152;4.456;2023-04-23T10:12:32;7.45;;;1.95;;
22715;SDS011;11525;51.152;4.456;2023-04-23T10:15:00;4.22;;;1.92;;
22715;SDS011;11525;51.152;4.456;2023-04-23T10:17:28;6.20;;;2.20;;
22715;SDS011;11525;51.152;4.456;2023-04-23T10:20:09;7.45;;;2.55;;
22715;SDS011;11525;51.152;4.456;2023-04-23T10:22:37;8.05;;;2.00;;
22715;SDS011;11525;51.152;4.456;2023-04-23T10:25:04;6.40;;;2.00;;
22715;SDS011;11525;51.152;4.456;2023-04-23T10:27:36;5.85;;;2.33;;
22715;SDS011;11525;51.152;4.456;2023-04-23T10:30:04;6.57;;;2.00;;
22715;SDS011;11525;51.152;4.456;2023-04-23T10:32:32;5.68;;;2.15;;
22715;SDS011;11525;51.152;4.456;2023-04-23T10:34:58;6.88;;;1.98;;
22715;SDS011;11525;51.152;4.456;2023-04-23T10:37:25;7.25;;;1.90;;
22715;SDS011;11525;51.152;4.456;2023-04-23T10:39:55;6.60;;;2.10;;
22715;SDS011;11525;51.152;4.456;2023-04-23T10:42:28;5.10;;;2.00;;
22715;SDS011;11525;51.152;4.456;2023-04-23T10:44:55;6.18;;;1.60;;
22715;SDS011;11525;51.152;4.456;2023-04-23T10:47:22;6.68;;;1.85;;
22715;SDS011;11525;51.152;4.456;2023-04-23T10:49:47;6.13;;;1.92;;
22715;SDS011;11525;51.152;4.456;2023-04-23T10:52:14;7.25;;;2.20;;
22715;SDS011;11525;51.152;4.456;2023-04-23T10:54:41;8.88;;;2.13;;
22715;SDS011;11525;51.152;4.456;2023-04-23T10:57:09;8.30;;;1.92;;
22715;SDS011;11525;51.152;4.456;2023-04-23T10:59:39;11.27;;;1.88;;
22715;SDS011;11525;51.152;4.456;2023-04-23T11:02:18;9.07;;;2.63;;
22715;SDS011;11525;51.152;4.456;2023-04-23T11:04:56;8.00;;;1.70;;
22715;SDS011;11525;51.152;4.456;2023-04-23T11:07:29;4.72;;;1.60;;
22715;SDS011;11525;51.152;4.456;2023-04-23T11:10:10;6.35;;;1.35;;
22715;SDS011;11525;51.152;4.456;2023-04-23T11:12:37;8.57;;;1.92;;
22715;SDS011;11525;51.152;4.456;2023-04-23T11:15:11;6.35;;;1.67;;
22715;SDS011;11525;51.152;4.456;2023-04-23T11:20:13;14.73;;;2.42;;
22715;SDS011;11525;51.152;4.456;2023-04-23T11:22:43;8.55;;;1.80;;
22715;SDS011;11525;51.152;4.456;2023-04-23T11:25:11;8.52;;;2.30;;
22715;SDS011;11525;51.152;4.456;2023-04-23T11:27:44;6.63;;;2.05;;
22715;SDS011;11525;51.152;4.456;2023-04-23T11:30:18;5.13;;;1.92;;
22715;SDS011;11525;51.152;4.456;2023-04-23T11:32:46;8.60;;;2.08;;
22715;SDS011;11525;51.152;4.456;2023-04-23T11:35:16;6.63;;;2.03;;
22715;SDS011;11525;51.152;4.456;2023-04-23T11:37:44;8.85;;;1.85;;
22715;SDS011;11525;51.152;4.456;2023-04-23T11:40:12;8.40;;;1.98;;
22715;SDS011;11525;51.152;4.456;2023-04-23T11:42:44;7.05;;;2.28;;
22715;SDS011;11525;51.152;4.456;2023-04-23T11:47:43;11.73;;;2.40;;
22715;SDS011;11525;51.152;4.456;2023-04-23T11:50:17;6.80;;;2.17;;
22715;SDS011;11525;51.152;4.456;2023-04-23T11:52:44;9.32;;;2.45;;
22715;SDS011;11525;51.152;4.456;2023-04-23T11:55:10;10.73;;;2.55;;
22715;SDS011;11525;51.152;4.456;2023-04-23T11:57:40;9.75;;;2.17;;
22715;SDS011;11525;51.152;4.456;2023-04-23T12:00:17;8.23;;;1.85;;
22715;SDS011;11525;51.152;4.456;2023-04-23T12:03:03;11.35;;;2.20;;
22715;SDS011;11525;51.152;4.456;2023-04-23T12:05:33;9.13;;;1.98;;
22715;SDS011;11525;51.152;4.456;2023-04-23T12:08:08;8.32;;;1.90;;
22715;SDS011;11525;51.152;4.456;2023-04-23T12:11:10;5.10;;;1.83;;
22715;SDS011;11525;51.152;4.456;2023-04-23T12:13:30;9.68;;;2.40;;
22715;SDS011;11525;51.152;4.456;2023-04-23T12:16:00;5.60;;;2.10;;
22715;SDS011;11525;51.152;4.456;2023-04-23T12:21:06;6.32;;;2.20;;
22715;SDS011;11525;51.152;4.456;2023-04-23T12:23:42;9.48;;;2.25;;
22715;SDS011;11525;51.152;4.456;2023-04-23T12:26:12;7.63;;;2.00;;
22715;SDS011;11525;51.152;4.456;2023-04-23T12:31:19;5.45;;;1.88;;
22715;SDS011;11525;51.152;4.456;2023-04-23T12:36:27;7.53;;;2.22;;
22715;SDS011;11525;51.152;4.456;2023-04-23T12:41:44;4.82;;;1.90;;
22715;SDS011;11525;51.152;4.456;2023-04-23T12:44:10;6.10;;;1.98;;
22715;SDS011;11525;51.152;4.456;2023-04-23T12:46:36;14.75;;;2.42;;
22715;SDS011;11525;51.152;4.456;2023-04-23T12:49:02;8.85;;;2.53;;
22715;SDS011;11525;51.152;4.456;2023-04-23T12:51:28;8.10;;;1.92;;
22715;SDS011;11525;51.152;4.456;2023-04-23T12:53:53;6.93;;;2.30;;
22715;SDS011;11525;51.152;4.456;2023-04-23T12:56:19;7.85;;;2.22;;
22715;SDS011;11525;51.152;4.456;2023-04-23T12:58:45;12.80;;;2.53;;
22715;SDS011;11525;51.152;4.456;2023-04-23T13:01:11;8.18;;;2.35;;
22715;SDS011;11525;51.152;4.456;2023-04-23T13:03:38;7.40;;;2.30;;
22715;SDS011;11525;51.152;4.456;2023-04-23T13:06:04;4.75;;;1.95;;
22715;SDS011;11525;51.152;4.456;2023-04-23T13:08:32;11.75;;;2.53;;
22715;SDS011;11525;51.152;4.456;2023-04-23T13:10:58;10.55;;;2.70;;
22715;SDS011;11525;51.152;4.456;2023-04-23T13:13:25;7.15;;;2.13;;
22715;SDS011;11525;51.152;4.456;2023-04-23T13:15:51;7.07;;;2.50;;
22715;SDS011;11525;51.152;4.456;2023-04-23T13:18:17;10.43;;;2.83;;
22715;SDS011;11525;51.152;4.456;2023-04-23T13:20:44;6.13;;;2.47;;
22715;SDS011;11525;51.152;4.456;2023-04-23T13:23:10;8.35;;;3.25;;
22715;SDS011;11525;51.152;4.456;2023-04-23T13:25:37;8.82;;;2.50;;
22715;SDS011;11525;51.152;4.456;2023-04-23T13:28:03;8.95;;;2.60;;
22715;SDS011;11525;51.152;4.456;2023-04-23T13:30:28;5.78;;;2.38;;
22715;SDS011;11525;51.152;4.456;2023-04-23T13:32:54;4.40;;;2.30;;
22715;SDS011;11525;51.152;4.456;2023-04-23T13:35:22;6.20;;;2.08;;
22715;SDS011;11525;51.152;4.456;2023-04-23T13:37:48;5.20;;;2.10;;
22715;SDS011;11525;51.152;4.456;2023-04-23T13:40:14;6.20;;;2.53;;
22715;SDS011;11525;51.152;4.456;2023-04-23T13:42:40;4.93;;;2.40;;
22715;SDS011;11525;51.152;4.456;2023-04-23T13:45:06;5.50;;;2.22;;
22715;SDS011;11525;51.152;4.456;2023-04-23T13:47:32;9.75;;;3.03;;
22715;SDS011;11525;51.152;4.456;2023-04-23T13:49:59;4.30;;;2.10;;
22715;SDS011;11525;51.152;4.456;2023-04-23T13:52:31;6.90;;;2.88;;
22715;SDS011;11525;51.152;4.456;2023-04-23T13:54:57;3.50;;;2.40;;
22715;SDS011;11525;51.152;4.456;2023-04-23T13:57:26;8.13;;;4.03;;
22715;SDS011;11525;51.152;4.456;2023-04-23T13:59:53;3.00;;;2.03;;
22715;SDS011;11525;51.152;4.456;2023-04-23T14:02:19;4.72;;;2.67;;
22715;SDS011;11525;51.152;4.456;2023-04-23T14:04:46;7.28;;;2.22;;
22715;SDS011;11525;51.152;4.456;2023-04-23T14:07:11;4.63;;;1.90;;
22715;SDS011;11525;51.152;4.456;2023-04-23T14:09:37;9.27;;;2.80;;
22715;SDS011;11525;51.152;4.456;2023-04-23T14:12:03;4.70;;;2.50;;
22715;SDS011;11525;51.152;4.456;2023-04-23T14:14:29;6.07;;;2.10;;
22715;SDS011;11525;51.152;4.456;2023-04-23T14:16:55;5.43;;;2.13;;
22715;SDS011;11525;51.152;4.456;2023-04-23T14:19:21;5.25;;;2.13;;
22715;SDS011;11525;51.152;4.456;2023-04-23T14:21:47;4.72;;;2.65;;
22715;SDS011;11525;51.152;4.456;2023-04-23T14:24:17;7.03;;;2.72;;
22715;SDS011;11525;51.152;4.456;2023-04-23T14:26:52;5.20;;;2.78;;
22715;SDS011;11525;51.152;4.456;2023-04-23T14:29:22;4.55;;;2.10;;
22715;SDS011;11525;51.152;4.456;2023-04-23T14:31:49;6.68;;;3.17;;
22715;SDS011;11525;51.152;4.456;2023-04-23T14:34:15;7.20;;;2.90;;
22715;SDS011;11525;51.152;4.456;2023-04-23T14:36:41;5.15;;;2.72;;
22715;SDS011;11525;51.152;4.456;2023-04-23T14:39:07;5.32;;;2.70;;
22715;SDS011;11525;51.152;4.456;2023-04-23T14:41:33;5.63;;;2.60;;
22715;SDS011;11525;51.152;4.456;2023-04-23T14:44:00;4.95;;;2.60;;
22715;SDS011;11525;51.152;4.456;2023-04-23T14:46:26;6.35;;;2.55;;
22715;SDS011;11525;51.152;4.456;2023-04-23T14:48:52;5.88;;;2.85;;
22715;SDS011;11525;51.152;4.456;2023-04-23T14:51:18;3.50;;;2.45;;